createdAt,value
2019-04-07T00:01:56.424Z,4.90
2019-04-07T00:04:27.371Z,4.90
2019-04-07T00:06:58.827Z,4.80
2019-04-07T00:09:29.911Z,4.90
2019-04-07T00:12:00.883Z,5.00
2019-04-07T00:14:31.814Z,4.90
2019-04-07T00:17:03.284Z,4.80
2019-04-07T00:19:34.218Z,4.70
2019-04-07T00:22:05.268Z,4.60
2019-04-07T00:24:36.512Z,4.60
2019-04-07T00:27:07.603Z,4.60
2019-04-07T00:29:38.905Z,4.50
2019-04-07T00:32:11.109Z,4.50
2019-04-07T00:34:42.382Z,4.50
2019-04-07T00:37:14.064Z,4.50
2019-04-07T00:39:45.132Z,4.40
2019-04-07T00:42:16.196Z,4.40
2019-04-07T00:44:48.187Z,4.30
2019-04-07T00:47:19.556Z,4.20
2019-04-07T00:49:51.237Z,4.20
2019-04-07T00:52:23.889Z,4.30
2019-04-07T00:54:54.816Z,4.20
2019-04-07T00:57:26.322Z,4.20
2019-04-07T00:59:57.487Z,4.10
2019-04-07T01:02:28.590Z,4.10
2019-04-07T01:04:59.914Z,4.00
2019-04-07T01:07:31.044Z,3.90
2019-04-07T01:10:02.190Z,3.80
2019-04-07T01:12:33.633Z,4.00
2019-04-07T01:15:07.678Z,4.10
2019-04-07T01:17:39.215Z,4.10
2019-04-07T01:20:10.821Z,4.10
2019-04-07T01:22:42.001Z,4.00
2019-04-07T01:25:13.814Z,4.00
2019-04-07T01:27:45.478Z,3.90
2019-04-07T01:30:17.187Z,3.90
2019-04-07T01:32:48.392Z,3.90
2019-04-07T01:35:20.243Z,4.10
2019-04-07T01:37:51.781Z,4.40
2019-04-07T01:40:23.506Z,4.30
2019-04-07T01:42:59.780Z,4.00
2019-04-07T01:45:32.422Z,3.90
2019-04-07T01:48:18.201Z,3.80
2019-04-07T01:51:10.294Z,3.80
2019-04-07T01:53:47.114Z,3.70
2019-04-07T01:56:26.147Z,3.70
2019-04-07T01:58:58.865Z,3.80
2019-04-07T02:01:48.093Z,4.00
2019-04-07T02:04:28.076Z,4.00
2019-04-07T02:07:19.484Z,3.90
2019-04-07T02:09:52.304Z,3.80
2019-04-07T02:12:38.331Z,3.60
2019-04-07T02:15:11.338Z,3.50
2019-04-07T02:17:56.050Z,3.70
2019-04-07T02:20:45.339Z,3.60
2019-04-07T02:23:17.922Z,3.70
2019-04-07T02:25:53.509Z,3.80
2019-04-07T02:28:26.451Z,3.90
2019-04-07T02:31:09.628Z,3.80
2019-04-07T02:33:43.835Z,3.60
2019-04-07T02:36:23.935Z,3.50
2019-04-07T02:39:02.816Z,3.40
2019-04-07T02:41:36.431Z,3.30
2019-04-07T02:44:09.288Z,3.70
2019-04-07T02:46:51.627Z,3.60
2019-04-07T02:49:33.873Z,3.60
2019-04-07T02:52:12.619Z,3.60
2019-04-07T02:55:02.451Z,3.50
2019-04-07T02:57:35.981Z,3.70
2019-04-07T03:00:10.326Z,3.60
2019-04-07T03:02:45.820Z,3.50
2019-04-07T03:05:28.123Z,3.30
2019-04-07T03:08:01.571Z,3.30
2019-04-07T03:10:44.151Z,3.20
2019-04-07T03:13:33.000Z,3.10
2019-04-07T03:16:14.795Z,3.10
2019-04-07T03:19:06.600Z,3.00
2019-04-07T03:21:42.489Z,2.90
2019-04-07T03:24:21.082Z,3.00
2019-04-07T03:27:08.055Z,3.30
2019-04-07T03:29:55.748Z,3.40
2019-04-07T03:32:48.415Z,3.40
2019-04-07T03:35:34.104Z,3.40
2019-04-07T03:38:20.839Z,3.30
2019-04-07T03:40:56.956Z,3.40
2019-04-07T03:43:44.008Z,3.20
2019-04-07T03:46:22.435Z,3.10
2019-04-07T03:48:58.116Z,2.90
2019-04-07T03:51:30.633Z,3.10
2019-04-07T03:54:01.297Z,3.40
2019-04-07T03:56:37.266Z,3.50
2019-04-07T03:59:21.831Z,3.40
2019-04-07T04:01:58.072Z,3.20
2019-04-07T04:04:43.651Z,3.10
2019-04-07T04:07:29.214Z,3.00
2019-04-07T04:09:55.892Z,3.00
2019-04-07T04:12:37.576Z,2.90
2019-04-07T04:15:15.105Z,2.70
2019-04-07T04:17:46.261Z,2.50
2019-04-07T04:20:17.330Z,2.40
2019-04-07T04:22:48.575Z,2.40
2019-04-07T04:25:19.775Z,2.40
2019-04-07T04:27:51.046Z,2.70
2019-04-07T04:30:22.311Z,2.70
2019-04-07T04:32:54.014Z,2.50
2019-04-07T04:35:25.226Z,2.30
2019-04-07T04:37:56.585Z,2.30
2019-04-07T04:40:28.095Z,2.20
2019-04-07T04:42:59.331Z,2.20
2019-04-07T04:45:30.385Z,2.20
2019-04-07T04:48:02.565Z,2.30
2019-04-07T04:50:33.766Z,2.50
2019-04-07T04:53:04.735Z,2.60
2019-04-07T04:55:35.682Z,3.00
2019-04-07T04:58:07.274Z,3.00
2019-04-07T05:00:38.522Z,3.10
2019-04-07T05:03:09.771Z,2.90
2019-04-07T05:05:41.365Z,2.90
2019-04-07T05:08:12.858Z,3.00
2019-04-07T05:10:44.040Z,3.10
2019-04-07T05:13:15.000Z,3.30
2019-04-07T05:15:45.946Z,3.40
2019-04-07T05:18:17.441Z,3.80
2019-04-07T05:20:48.736Z,4.00
2019-04-07T05:23:20.398Z,3.90
2019-04-07T05:25:51.593Z,3.80
2019-04-07T05:28:22.776Z,3.60
2019-04-07T05:30:54.295Z,3.60
2019-04-07T05:33:25.498Z,3.70
2019-04-07T05:35:56.657Z,4.00
2019-04-07T05:38:27.730Z,4.10
2019-04-07T05:40:58.717Z,4.30
2019-04-07T05:43:29.714Z,4.40
2019-04-07T05:46:00.859Z,4.40
2019-04-07T05:48:32.617Z,4.40
2019-04-07T05:51:04.338Z,4.40
2019-04-07T05:53:35.348Z,4.60
2019-04-07T05:56:06.329Z,4.70
2019-04-07T05:58:38.676Z,4.80
2019-04-07T06:01:10.687Z,4.90
2019-04-07T06:03:43.523Z,4.90
2019-04-07T06:06:15.828Z,4.80
2019-04-07T06:08:48.467Z,4.70
2019-04-07T06:11:20.415Z,4.80
2019-04-07T06:13:51.931Z,4.80
2019-04-07T06:16:23.750Z,4.80
2019-04-07T06:18:55.494Z,4.80
2019-04-07T06:21:27.746Z,4.90
2019-04-07T06:24:00.598Z,5.00
2019-04-07T06:26:31.517Z,5.10
2019-04-07T06:29:02.651Z,5.30
2019-04-07T06:31:34.023Z,5.40
2019-04-07T06:34:08.172Z,5.60
2019-04-07T06:36:38.717Z,5.60
2019-04-07T06:39:09.870Z,5.80
2019-04-07T06:41:40.968Z,6.00
2019-04-07T06:44:15.867Z,6.20
2019-04-07T06:46:46.952Z,6.40
2019-04-07T06:49:19.704Z,6.70
2019-04-07T06:52:09.346Z,6.90
2019-04-07T06:54:57.281Z,7.00
2019-04-07T06:57:46.618Z,7.00
2019-04-07T07:00:36.423Z,7.20
2019-04-07T07:03:25.405Z,7.40
2019-04-07T07:06:05.676Z,7.50
2019-04-07T07:08:45.881Z,7.60
2019-04-07T07:11:26.458Z,7.70
2019-04-07T07:13:54.641Z,7.80
2019-04-07T07:16:30.820Z,7.90
2019-04-07T07:19:02.150Z,8.20
2019-04-07T07:21:48.994Z,8.50
2019-04-07T07:24:24.996Z,8.80
2019-04-07T07:26:52.936Z,9.00
2019-04-07T07:29:26.529Z,9.10
2019-04-07T07:32:02.518Z,9.40
2019-04-07T07:34:29.514Z,9.40
2019-04-07T07:37:00.635Z,9.60
2019-04-07T07:39:31.652Z,9.70
2019-04-07T07:42:02.931Z,9.80
2019-04-07T07:44:38.189Z,9.90
2019-04-07T07:47:07.966Z,9.90
2019-04-07T07:49:40.330Z,10.10
2019-04-07T07:52:11.697Z,10.30
2019-04-07T07:54:45.180Z,10.60
2019-04-07T07:57:16.104Z,10.60
2019-04-07T07:59:47.307Z,10.70
2019-04-07T08:02:19.935Z,10.90
2019-04-07T08:04:51.134Z,11.10
2019-04-07T08:07:22.177Z,11.20
2019-04-07T08:09:54.448Z,11.30
2019-04-07T08:12:25.811Z,11.40
2019-04-07T08:14:58.326Z,11.40
2019-04-07T08:17:31.650Z,11.40
2019-04-07T08:20:02.480Z,11.40
2019-04-07T08:22:39.576Z,11.40
2019-04-07T08:25:06.933Z,11.50
2019-04-07T08:27:37.875Z,11.70
2019-04-07T08:30:12.733Z,12.10
2019-04-07T08:32:43.219Z,12.10
2019-04-07T08:35:14.456Z,11.90
2019-04-07T08:37:46.486Z,12.00
2019-04-07T08:40:18.804Z,12.50
2019-04-07T08:42:50.221Z,13.00
2019-04-07T08:45:23.091Z,13.30
2019-04-07T08:47:54.075Z,13.30
2019-04-07T08:50:27.703Z,13.30
2019-04-07T08:52:57.918Z,13.00
2019-04-07T08:55:29.852Z,12.60
2019-04-07T08:58:03.683Z,12.60
2019-04-07T09:00:35.133Z,12.50
2019-04-07T09:03:12.008Z,12.40
2019-04-07T09:05:38.774Z,12.40
2019-04-07T09:08:09.728Z,12.60
2019-04-07T09:10:42.954Z,12.70
2019-04-07T09:13:14.026Z,12.70
2019-04-07T09:16:03.572Z,12.70
2019-04-07T09:18:38.970Z,12.70
2019-04-07T09:21:33.657Z,12.80
2019-04-07T09:24:02.154Z,13.00
2019-04-07T09:26:35.467Z,13.10
2019-04-07T09:29:11.611Z,13.00
2019-04-07T09:32:00.475Z,13.20
2019-04-07T09:34:34.566Z,13.60
2019-04-07T09:37:24.416Z,13.50
2019-04-07T09:40:17.397Z,13.20
2019-04-07T09:42:51.849Z,13.50
2019-04-07T09:45:32.357Z,13.60
2019-04-07T09:48:08.799Z,13.50
2019-04-07T09:50:45.988Z,13.20
2019-04-07T09:53:25.878Z,13.30
2019-04-07T09:56:01.589Z,13.40
2019-04-07T09:58:34.151Z,13.50
2019-04-07T10:01:07.807Z,13.60
2019-04-07T10:03:40.835Z,14.00
2019-04-07T10:06:22.585Z,14.20
2019-04-07T10:09:11.680Z,15.10
2019-04-07T10:11:57.417Z,15.20
2019-04-07T10:14:36.269Z,15.20
2019-04-07T10:17:17.902Z,15.50
2019-04-07T10:19:51.759Z,15.90
2019-04-07T10:22:28.806Z,16.00
2019-04-07T10:25:04.492Z,15.70
2019-04-07T10:27:54.368Z,15.80
2019-04-07T10:30:25.974Z,16.10
2019-04-07T10:32:58.632Z,16.70
2019-04-07T10:35:29.605Z,17.50
2019-04-07T10:38:02.028Z,18.00
2019-04-07T10:40:33.642Z,18.40
2019-04-07T10:43:07.197Z,19.70
2019-04-07T10:45:40.524Z,20.60
2019-04-07T10:48:13.439Z,20.90
2019-04-07T10:50:46.908Z,20.70
2019-04-07T10:53:22.750Z,21.20
2019-04-07T10:55:56.324Z,20.80
2019-04-07T10:58:31.258Z,20.60
2019-04-07T11:01:06.866Z,19.70
2019-04-07T11:03:39.511Z,19.90
2019-04-07T11:06:28.445Z,20.70
2019-04-07T11:09:17.774Z,21.50
2019-04-07T11:11:51.124Z,24.20
2019-04-07T11:14:39.981Z,25.10
2019-04-07T11:17:22.549Z,22.70
2019-04-07T11:20:03.501Z,22.90
2019-04-07T11:22:52.110Z,24.30
2019-04-07T11:25:30.448Z,25.30
2019-04-07T11:28:03.020Z,26.20
2019-04-07T11:30:38.715Z,26.90
2019-04-07T11:33:11.757Z,26.40
2019-04-07T11:36:00.770Z,26.20
2019-04-07T11:38:34.082Z,26.80
2019-04-07T11:41:05.842Z,26.20
2019-04-07T11:43:44.446Z,27.10
2019-04-07T11:46:15.349Z,27.10
2019-04-07T11:49:04.423Z,27.20
2019-04-07T11:51:40.697Z,27.60
2019-04-07T11:54:24.083Z,27.60
2019-04-07T11:56:57.343Z,27.50
2019-04-07T11:59:46.372Z,27.50
2019-04-07T12:02:24.944Z,28.90
2019-04-07T12:05:08.192Z,28.70
2019-04-07T12:07:56.476Z,28.50
2019-04-07T12:10:31.855Z,29.30
2019-04-07T12:13:14.360Z,29.80
2019-04-07T12:15:46.992Z,29.20
2019-04-07T12:18:18.913Z,28.70
2019-04-07T12:20:54.910Z,27.90
2019-04-07T12:23:44.399Z,28.60
2019-04-07T12:26:22.920Z,28.00
2019-04-07T12:28:53.958Z,28.00
2019-04-07T12:31:35.869Z,27.40
2019-04-07T12:34:17.859Z,27.60
2019-04-07T12:36:54.158Z,28.60
2019-04-07T12:39:25.627Z,27.60
2019-04-07T12:41:59.425Z,27.00
2019-04-07T12:44:33.316Z,27.50
2019-04-07T12:47:18.166Z,28.70
2019-04-07T12:50:05.957Z,29.80
2019-04-07T12:52:42.159Z,30.30
2019-04-07T12:55:17.726Z,30.30
2019-04-07T12:58:02.052Z,30.60
2019-04-07T13:00:53.686Z,30.80
2019-04-07T13:03:16.901Z,30.80
2019-04-07T13:05:47.686Z,31.30
2019-04-07T13:08:26.332Z,31.00
2019-04-07T13:11:07.505Z,31.10
2019-04-07T13:13:53.893Z,31.40
2019-04-07T13:16:35.915Z,31.30
2019-04-07T13:19:25.317Z,31.00
2019-04-07T13:22:02.224Z,30.50
2019-04-07T13:24:51.339Z,30.50
2019-04-07T13:27:32.635Z,31.40
2019-04-07T13:30:23.513Z,32.10
2019-04-07T13:33:04.906Z,31.20
2019-04-07T13:35:40.128Z,31.70
2019-04-07T13:38:28.256Z,31.60
2019-04-07T13:40:59.481Z,31.20
2019-04-07T13:43:42.682Z,29.10
2019-04-07T13:46:27.859Z,27.60
2019-04-07T13:49:13.906Z,26.80
2019-04-07T13:52:02.732Z,26.70
2019-04-07T13:54:48.400Z,26.90
2019-04-07T13:57:28.234Z,27.50
2019-04-07T14:00:17.261Z,27.90
2019-04-07T14:03:01.969Z,29.30
2019-04-07T14:05:52.434Z,29.80
2019-04-07T14:08:43.812Z,31.00
2019-04-07T14:11:27.383Z,32.30
2019-04-07T14:14:05.684Z,32.40
2019-04-07T14:16:54.805Z,31.50
2019-04-07T14:19:25.452Z,29.70
2019-04-07T14:22:08.955Z,28.50
2019-04-07T14:24:43.648Z,29.00
2019-04-07T14:27:18.726Z,29.60
2019-04-07T14:30:11.566Z,29.40
2019-04-07T14:32:47.213Z,29.10
2019-04-07T14:35:19.466Z,28.80
2019-04-07T14:37:59.386Z,28.90
2019-04-07T14:40:32.042Z,28.60
2019-04-07T14:43:08.166Z,28.70
2019-04-07T14:45:46.648Z,28.40
2019-04-07T14:48:30.106Z,28.30
2019-04-07T14:51:19.651Z,28.90
2019-04-07T14:53:53.025Z,26.20
2019-04-07T14:56:28.840Z,24.20
2019-04-07T14:59:01.833Z,23.50
2019-04-07T15:01:47.910Z,23.90
2019-04-07T15:04:19.337Z,24.40
2019-04-07T15:06:51.964Z,24.70
2019-04-07T15:09:30.578Z,25.00
2019-04-07T15:12:15.466Z,25.10
2019-04-07T15:14:36.043Z,24.00
2019-04-07T15:17:07.797Z,23.70
2019-04-07T15:19:39.744Z,24.40
2019-04-07T15:22:10.923Z,25.20
2019-04-07T15:24:42.741Z,26.00
2019-04-07T15:27:14.397Z,26.10
2019-04-07T15:29:46.789Z,25.50
2019-04-07T15:32:21.180Z,24.30
2019-04-07T15:34:52.539Z,23.30
2019-04-07T15:37:24.950Z,22.50
2019-04-07T15:39:58.959Z,21.70
2019-04-07T15:42:37.750Z,21.40
2019-04-07T15:45:02.472Z,21.50
2019-04-07T15:47:33.601Z,22.00
2019-04-07T15:50:06.085Z,22.50
2019-04-07T15:52:37.072Z,22.20
2019-04-07T15:55:08.753Z,21.30
2019-04-07T15:57:40.669Z,21.30
2019-04-07T16:00:13.401Z,21.10
2019-04-07T16:02:44.547Z,20.90
2019-04-07T16:05:15.967Z,20.90
2019-04-07T16:07:48.066Z,21.00
2019-04-07T16:10:22.841Z,20.40
2019-04-07T16:12:54.369Z,19.80
2019-04-07T16:15:26.170Z,19.50
2019-04-07T16:17:57.242Z,18.90
2019-04-07T16:20:32.473Z,18.70
2019-04-07T16:23:00.937Z,18.50
2019-04-07T16:25:32.256Z,18.20
2019-04-07T16:28:03.604Z,18.10
2019-04-07T16:30:34.635Z,17.70
2019-04-07T16:33:05.704Z,17.60
2019-04-07T16:35:36.874Z,17.30
2019-04-07T16:38:07.901Z,17.30
2019-04-07T16:40:41.353Z,17.30
2019-04-07T16:43:15.420Z,17.30
2019-04-07T16:45:45.832Z,17.50
2019-04-07T16:48:16.887Z,17.80
2019-04-07T16:50:51.099Z,18.20
2019-04-07T16:53:20.581Z,18.30
2019-04-07T16:55:55.081Z,18.20
2019-04-07T16:58:24.546Z,18.00
2019-04-07T17:00:56.027Z,17.80
2019-04-07T17:03:27.556Z,17.40
2019-04-07T17:06:01.223Z,17.20
2019-04-07T17:08:31.838Z,16.90
2019-04-07T17:11:07.854Z,16.70
2019-04-07T17:13:41.375Z,16.60
2019-04-07T17:16:12.234Z,16.40
2019-04-07T17:18:44.271Z,16.30
2019-04-07T17:21:20.445Z,16.20
2019-04-07T17:23:55.422Z,16.20
2019-04-07T17:26:24.270Z,15.90
2019-04-07T17:28:56.783Z,15.70
2019-04-07T17:31:31.822Z,15.60
2019-04-07T17:34:03.584Z,15.50
2019-04-07T17:36:34.286Z,15.20
2019-04-07T17:39:22.867Z,15.00
2019-04-07T17:41:57.231Z,14.80
2019-04-07T17:44:32.913Z,14.70
2019-04-07T17:47:05.442Z,14.60
2019-04-07T17:49:38.993Z,14.50
2019-04-07T17:52:26.604Z,14.30
2019-04-07T17:55:00.112Z,14.20
2019-04-07T17:57:51.078Z,14.40
2019-04-07T18:00:21.930Z,14.40
2019-04-07T18:02:57.173Z,14.30
2019-04-07T18:05:29.855Z,14.20
2019-04-07T18:08:00.611Z,14.10
2019-04-07T18:10:33.181Z,14.10
2019-04-07T18:13:24.773Z,14.20
2019-04-07T18:16:00.974Z,14.10
2019-04-07T18:18:39.594Z,14.10
2019-04-07T18:21:19.288Z,13.90
2019-04-07T18:24:10.498Z,13.90
2019-04-07T18:26:58.351Z,13.70
2019-04-07T18:29:34.246Z,13.60
2019-04-07T18:32:05.106Z,13.50
2019-04-07T18:34:36.498Z,13.40
2019-04-07T18:37:18.259Z,13.30
2019-04-07T18:40:06.727Z,13.20
2019-04-07T18:42:45.617Z,13.10
2019-04-07T18:45:21.729Z,13.00
2019-04-07T18:47:59.533Z,12.90
2019-04-07T18:50:30.733Z,12.80
2019-04-07T18:53:10.328Z,12.70
2019-04-07T18:55:59.515Z,12.60
2019-04-07T18:58:50.869Z,12.60
2019-04-07T19:01:24.362Z,12.60
2019-04-07T19:04:10.075Z,12.60
2019-04-07T19:06:46.091Z,12.60
2019-04-07T19:09:29.192Z,12.60
2019-04-07T19:12:16.672Z,12.50
2019-04-07T19:14:57.120Z,12.60
2019-04-07T19:17:40.475Z,12.60
2019-04-07T19:20:26.032Z,12.50
2019-04-07T19:23:02.395Z,12.50
2019-04-07T19:25:53.218Z,12.50
2019-04-07T19:28:23.878Z,12.50
2019-04-07T19:30:57.731Z,12.50
2019-04-07T19:33:42.265Z,12.40
2019-04-07T19:36:21.344Z,12.40
2019-04-07T19:38:58.456Z,12.30
2019-04-07T19:41:33.565Z,12.30
2019-04-07T19:44:34.023Z,12.20
2019-04-07T19:46:59.091Z,12.00
2019-04-07T19:49:29.637Z,11.90
2019-04-07T19:52:12.525Z,11.80
2019-04-07T19:55:01.671Z,11.80
2019-04-07T19:57:37.281Z,11.90
2019-04-07T20:00:14.676Z,12.20
2019-04-07T20:03:07.488Z,12.30
2019-04-07T20:05:50.883Z,12.40
2019-04-07T20:08:39.519Z,12.80
2019-04-07T20:11:16.643Z,12.90
2019-04-07T20:13:49.288Z,12.70
2019-04-07T20:16:28.321Z,12.50
2019-04-07T20:19:17.119Z,12.30
2019-04-07T20:21:55.114Z,12.30
2019-04-07T20:24:27.577Z,12.20
2019-04-07T20:27:04.075Z,12.10
2019-04-07T20:29:41.381Z,12.00
2019-04-07T20:32:16.543Z,11.90
2019-04-07T20:34:54.989Z,11.70
2019-04-07T20:37:30.590Z,11.70
2019-04-07T20:40:06.982Z,11.70
2019-04-07T20:42:40.711Z,11.60
2019-04-07T20:45:29.818Z,11.60
2019-04-07T20:48:13.587Z,11.60
2019-04-07T20:50:50.325Z,11.70
2019-04-07T20:53:28.295Z,11.60
2019-04-07T20:56:02.778Z,11.20
2019-04-07T20:58:56.665Z,11.10
2019-04-07T21:01:44.578Z,10.90
2019-04-07T21:04:17.944Z,10.80
2019-04-07T21:06:59.896Z,10.70
2019-04-07T21:09:35.852Z,10.60
2019-04-07T21:12:12.750Z,10.40
2019-04-07T21:15:04.527Z,10.20
2019-04-07T21:17:31.587Z,10.20
2019-04-07T21:20:11.897Z,10.10
2019-04-07T21:22:47.799Z,9.90
2019-04-07T21:25:23.787Z,9.80
2019-04-07T21:27:54.805Z,9.80
2019-04-07T21:30:44.093Z,9.80
2019-04-07T21:33:22.378Z,9.70
2019-04-07T21:36:08.144Z,9.70
2019-04-07T21:38:58.327Z,9.60
2019-04-07T21:41:47.864Z,9.70
2019-04-07T21:44:27.044Z,9.70
2019-04-07T21:47:12.544Z,9.80
2019-04-07T21:49:45.818Z,9.80
2019-04-07T21:52:20.948Z,9.70
2019-04-07T21:54:53.560Z,9.70
2019-04-07T21:57:24.378Z,9.90
2019-04-07T22:00:13.422Z,9.70
2019-04-07T22:02:55.940Z,9.70
2019-04-07T22:05:31.548Z,9.50
2019-04-07T22:08:10.204Z,9.40
2019-04-07T22:10:36.851Z,9.60
2019-04-07T22:13:08.327Z,9.70
2019-04-07T22:15:45.838Z,9.60
2019-04-07T22:18:13.128Z,9.50
2019-04-07T22:20:44.144Z,9.50
2019-04-07T22:23:15.122Z,9.50
2019-04-07T22:25:51.560Z,9.60
2019-04-07T22:28:22.801Z,9.50
2019-04-07T22:30:55.284Z,9.40
2019-04-07T22:33:30.010Z,9.30
2019-04-07T22:35:59.707Z,9.30
2019-04-07T22:38:31.527Z,9.20
2019-04-07T22:41:02.755Z,9.30
2019-04-07T22:43:34.934Z,9.40
2019-04-07T22:46:16.480Z,9.40
2019-04-07T22:48:38.794Z,9.50
2019-04-07T22:51:12.387Z,9.50
2019-04-07T22:53:43.316Z,9.30
2019-04-07T22:56:14.386Z,9.20
2019-04-07T22:58:46.436Z,9.30
2019-04-07T23:01:17.490Z,9.30
2019-04-07T23:03:49.627Z,9.40
2019-04-07T23:06:21.082Z,9.40
2019-04-07T23:08:53.033Z,9.30
2019-04-07T23:11:24.148Z,9.30
2019-04-07T23:13:55.526Z,9.30
2019-04-07T23:16:27.524Z,9.30
2019-04-07T23:18:58.622Z,9.20
2019-04-07T23:21:30.055Z,9.30
2019-04-07T23:24:04.240Z,9.20
2019-04-07T23:26:35.329Z,9.10
2019-04-07T23:29:06.424Z,9.00
2019-04-07T23:31:38.382Z,9.00
2019-04-07T23:34:10.502Z,8.90
2019-04-07T23:36:42.481Z,8.80
2019-04-07T23:39:13.587Z,8.80
2019-04-07T23:41:44.528Z,8.80
2019-04-07T23:44:16.074Z,8.90
2019-04-07T23:46:47.711Z,8.90
2019-04-07T23:49:19.075Z,8.80
2019-04-07T23:51:51.050Z,8.80
2019-04-07T23:54:22.589Z,8.80
2019-04-07T23:56:54.158Z,8.80
2019-04-07T23:59:27.089Z,8.80
